Time;durP1;ratioP1;P1;durP2;ratioP2;P2;SDS_P1;SDS_P2;PMS_P1;PMS_P2;Temp;Humidity;BMP_temperature;BMP_pressure;BME280_temperature;BME280_humidity;BME280_pressure;Samples;Min_cycle;Max_cycle;Signal;HPM_P1;HPM_P2
2022/07/12 00:04:21;;;;;;;0.00;0.00;;;;;;;13.92;100.00;102458.13;10434031;28;20052;-79
2022/07/12 00:09:23;;;;;;;0.00;0.00;;;;;;;13.82;100.00;102463.78;10449814;28;20111;-79
2022/07/12 00:14:25;;;;;;;0.00;0.00;;;;;;;13.72;100.00;102466.88;10433509;28;20536;-79
2022/07/12 00:19:26;;;;;;;0.00;0.00;;;;;;;13.80;100.00;102462.88;10466189;28;20051;-79
2022/07/12 00:24:28;;;;;;;0.00;0.00;;;;;;;13.55;100.00;102463.63;10435325;28;20049;-79
2022/07/12 00:29:30;;;;;;;0.00;0.00;;;;;;;13.60;100.00;102452.59;10436289;28;20040;-80
2022/07/12 00:34:32;;;;;;;0.00;0.00;;;;;;;13.56;100.00;102449.84;10449147;28;20496;-80
2022/07/12 00:39:33;;;;;;;0.10;0.10;;;;;;;13.55;100.00;102441.19;10422954;28;20064;-80
2022/07/12 00:44:36;;;;;;;0.00;0.00;;;;;;;13.53;100.00;102431.63;10465468;28;20150;-80
2022/07/12 00:49:39;;;;;;;0.10;0.08;;;;;;;13.32;100.00;102437.69;10444589;28;20045;-80
2022/07/12 00:54:40;;;;;;;0.20;0.03;;;;;;;13.04;100.00;102436.59;10437732;28;20064;-80
2022/07/12 00:59:42;;;;;;;0.10;0.00;;;;;;;13.05;100.00;102442.66;10440366;28;20052;-80
2022/07/12 01:04:45;;;;;;;0.00;0.00;;;;;;;12.99;100.00;102428.63;10432208;28;20058;-80
2022/07/12 01:09:48;;;;;;;0.00;0.00;;;;;;;12.97;100.00;102432.88;10445607;28;20124;-80
2022/07/12 01:14:50;;;;;;;0.10;0.10;;;;;;;12.77;100.00;102441.53;10449102;28;20048;-80
2022/07/12 01:19:57;;;;;;;0.00;0.00;;;;;;;12.97;100.00;102440.66;10441843;28;20523;-80
2022/07/12 01:25:00;;;;;;;0.00;0.00;;;;;;;12.60;100.00;102427.88;10447700;28;20511;-80
2022/07/12 01:30:03;;;;;;;0.00;0.00;;;;;;;12.53;100.00;102434.50;10450756;28;20045;-80
2022/07/12 01:35:07;;;;;;;0.00;0.00;;;;;;;12.73;100.00;102444.78;10454478;28;20049;-80
2022/07/12 01:40:13;;;;;;;0.00;0.00;;;;;;;12.46;100.00;102460.91;10452763;28;20048;-80
2022/07/12 01:45:15;;;;;;;0.63;0.63;;;;;;;12.47;100.00;102467.84;10454519;28;20854;-80
2022/07/12 01:50:17;;;;;;;0.10;0.10;;;;;;;12.51;100.00;102474.91;10435566;28;20068;-80
2022/07/12 01:55:18;;;;;;;0.10;0.08;;;;;;;12.41;100.00;102477.91;10454518;28;20045;-80
2022/07/12 02:00:20;;;;;;;0.20;0.10;;;;;;;12.27;100.00;102470.44;10449952;28;20049;-80
2022/07/12 02:05:22;;;;;;;0.10;0.10;;;;;;;12.30;100.00;102480.94;10454888;28;20049;-80
2022/07/12 02:10:24;;;;;;;0.10;0.10;;;;;;;12.19;100.00;102482.13;10454147;28;20055;-80
2022/07/12 02:15:26;;;;;;;0.00;0.00;;;;;;;12.27;100.00;102485.94;10453425;28;20049;-80
2022/07/12 02:20:28;;;;;;;0.00;0.00;;;;;;;12.14;100.00;102473.31;10448574;28;20051;-81
2022/07/12 02:25:29;;;;;;;0.55;0.15;;;;;;;12.03;100.00;102481.44;10434439;28;20052;-80
2022/07/12 02:30:31;;;;;;;0.00;0.00;;;;;;;12.08;100.00;102475.63;10445692;28;20048;-80
2022/07/12 02:35:33;;;;;;;0.00;0.00;;;;;;;12.02;100.00;102477.13;10449238;28;20049;-80
2022/07/12 02:40:53;;;;;;;0.00;0.00;;;;;;;12.06;100.00;102480.72;10433354;28;20049;-75
2022/07/12 02:46:03;;;;;;;0.15;0.15;;;;;;;11.91;100.00;102481.72;10475375;28;20053;-76
2022/07/12 02:51:07;;;;;;;1.98;0.28;;;;;;;11.90;100.00;102474.81;10438140;28;20084;-80
2022/07/12 02:56:09;;;;;;;0.35;0.13;;;;;;;12.05;100.00;102473.78;10450249;28;20116;-80
2022/07/12 03:01:11;;;;;;;0.88;0.15;;;;;;;12.00;100.00;102468.41;10467540;28;20059;-80
2022/07/12 03:06:13;;;;;;;0.15;0.10;;;;;;;11.94;100.00;102465.53;10452017;28;20144;-81
2022/07/12 03:11:15;;;;;;;0.00;0.00;;;;;;;11.79;100.00;102469.97;10449887;28;20129;-80
2022/07/12 03:16:17;;;;;;;0.08;0.08;;;;;;;11.89;100.00;102477.31;10447693;28;20056;-80
2022/07/12 03:21:19;;;;;;;0.10;0.10;;;;;;;11.90;100.00;102466.19;10446663;28;20045;-80
2022/07/12 03:26:21;;;;;;;0.10;0.10;;;;;;;11.68;100.00;102466.91;10440367;28;20271;-80
2022/07/12 03:31:24;;;;;;;0.22;0.10;;;;;;;11.67;100.00;102471.16;10448209;28;20496;-80
2022/07/12 03:36:26;;;;;;;0.00;0.00;;;;;;;11.63;100.00;102479.59;10451246;28;20059;-80
2022/07/12 03:41:27;;;;;;;0.00;0.00;;;;;;;11.67;100.00;102486.66;10449749;28;20091;-80
2022/07/12 03:46:29;;;;;;;0.20;0.13;;;;;;;11.38;100.00;102482.72;10450172;28;20055;-80
2022/07/12 03:51:31;;;;;;;0.65;0.10;;;;;;;11.57;100.00;102484.47;10449319;28;20518;-80
2022/07/12 04:01:57;;;;;;;0.13;0.13;;;;;;;11.58;100.00;102478.47;10436808;28;20056;-80
2022/07/12 04:06:58;;;;;;;0.10;0.10;;;;;;;11.57;100.00;102479.31;10451482;28;20041;-80
2022/07/12 04:12:00;;;;;;;0.30;0.30;;;;;;;11.85;100.00;102485.75;10449910;28;20037;-81
2022/07/12 04:17:04;;;;;;;0.00;0.00;;;;;;;11.72;100.00;102474.88;10441801;28;20408;-80
2022/07/12 04:22:06;;;;;;;0.20;0.20;;;;;;;11.79;100.00;102464.81;10447419;28;20049;-81
2022/07/12 04:27:08;;;;;;;0.47;0.30;;;;;;;11.93;100.00;102468.91;10445918;28;20044;-80
2022/07/12 04:32:09;;;;;;;0.40;0.28;;;;;;;12.24;100.00;102472.00;10435092;28;20377;-80
2022/07/12 04:37:11;;;;;;;0.10;0.10;;;;;;;12.19;100.00;102462.38;10455111;28;20096;-80
2022/07/12 04:42:13;;;;;;;0.00;0.00;;;;;;;12.43;100.00;102463.34;10437501;28;20046;-80
2022/07/12 04:47:15;;;;;;;0.20;0.20;;;;;;;12.92;100.00;102478.34;10434710;28;20049;-80
2022/07/12 04:52:16;;;;;;;1.00;0.52;;;;;;;13.08;100.00;102495.41;10448843;28;20079;-80
2022/07/12 04:57:18;;;;;;;0.22;0.10;;;;;;;13.43;100.00;102498.56;10447482;28;20044;-80
2022/07/12 05:02:20;;;;;;;0.20;0.20;;;;;;;13.60;100.00;102494.03;10457177;28;20060;-80
2022/07/12 05:07:21;;;;;;;0.50;0.40;;;;;;;14.15;100.00;102504.75;10455786;28;20053;-80
2022/07/12 05:12:23;;;;;;;0.10;0.10;;;;;;;14.42;100.00;102501.38;10456510;28;20040;-80
2022/07/12 05:17:25;;;;;;;0.52;0.38;;;;;;;14.57;100.00;102512.28;10473151;28;20048;-80
2022/07/12 05:22:27;;;;;;;0.65;0.30;;;;;;;14.67;100.00;102502.28;10455073;28;20442;-81
2022/07/12 05:27:28;;;;;;;0.55;0.43;;;;;;;15.03;100.00;102512.13;10458333;28;20515;-80
2022/07/12 05:32:31;;;;;;;0.30;0.30;;;;;;;15.16;100.00;102509.09;10452486;28;20056;-80
2022/07/12 05:37:32;;;;;;;1.75;0.43;;;;;;;15.39;100.00;102511.56;10457819;28;20049;-80
2022/07/12 05:42:34;;;;;;;0.38;0.30;;;;;;;15.54;100.00;102538.00;10455560;28;20041;-80
2022/07/12 05:47:36;;;;;;;0.30;0.30;;;;;;;16.02;100.00;102551.63;10453660;28;20484;-80
2022/07/12 05:57:57;;;;;;;0.20;0.20;;;;;;;16.51;100.00;102562.56;10456599;28;20047;-80
2022/07/12 06:02:59;;;;;;;0.30;0.22;;;;;;;16.71;100.00;102554.41;10455941;28;20496;-80
2022/07/12 06:08:01;;;;;;;2.58;1.13;;;;;;;16.90;100.00;102553.16;10455918;28;20037;-80
2022/07/12 06:13:03;;;;;;;0.57;0.47;;;;;;;17.37;100.00;102548.31;10453379;28;20045;-80
2022/07/12 06:18:05;;;;;;;1.95;0.82;;;;;;;17.39;100.00;102537.91;10470573;28;20265;-80
2022/07/12 06:23:07;;;;;;;0.98;0.52;;;;;;;17.56;100.00;102547.03;10454945;28;20114;-80
2022/07/12 06:28:09;;;;;;;1.30;0.68;;;;;;;17.88;100.00;102535.53;10452803;28;20053;-80
2022/07/12 06:33:11;;;;;;;1.67;0.73;;;;;;;18.04;100.00;102529.84;10456086;28;20056;-80
2022/07/12 06:38:12;;;;;;;5.05;1.45;;;;;;;18.33;100.00;102523.44;10430693;28;20045;-80
2022/07/12 06:43:14;;;;;;;1.02;0.90;;;;;;;18.57;100.00;102530.88;10453216;28;20548;-80
2022/07/12 06:48:16;;;;;;;2.95;1.02;;;;;;;18.93;100.00;102532.41;10452266;28;20052;-80
2022/07/12 06:53:18;;;;;;;1.23;0.60;;;;;;;19.40;100.00;102533.16;10451024;28;20076;-80
2022/07/12 06:58:19;;;;;;;1.10;0.57;;;;;;;19.76;100.00;102526.69;10450976;28;20124;-79
2022/07/12 07:03:21;;;;;;;0.77;0.38;;;;;;;19.64;100.00;102523.03;10435722;28;20052;-80
2022/07/12 07:08:22;;;;;;;1.00;0.68;;;;;;;20.05;100.00;102518.38;10453206;28;20060;-80
2022/07/12 07:13:24;;;;;;;0.95;0.55;;;;;;;20.57;100.00;102504.97;10430908;28;20059;-80
2022/07/12 07:18:26;;;;;;;1.30;1.02;;;;;;;20.61;100.00;102497.16;10450990;28;20045;-80
2022/07/12 07:23:28;;;;;;;1.20;0.65;;;;;;;21.31;100.00;102492.50;10437874;28;20040;-80
2022/07/12 07:28:29;;;;;;;1.20;0.75;;;;;;;21.65;100.00;102487.50;10447784;28;20037;-80
2022/07/12 07:33:48;;;;;;;2.43;1.30;;;;;;;21.56;100.00;102483.03;10429558;28;20134;-80
2022/07/12 07:38:50;;;;;;;0.57;0.50;;;;;;;22.64;100.00;102479.03;10435724;28;20037;-80
2022/07/12 07:43:51;;;;;;;0.80;0.70;;;;;;;22.37;100.00;102485.97;10448607;28;20085;-80
2022/07/12 07:48:53;;;;;;;0.70;0.47;;;;;;;22.74;100.00;102482.53;10455273;28;20041;-79
2022/07/12 07:53:55;;;;;;;0.82;0.82;;;;;;;23.25;100.00;102487.78;10444610;28;20048;-80
2022/07/12 07:58:57;;;;;;;0.65;0.65;;;;;;;23.68;100.00;102481.53;10449111;28;20075;-79
2022/07/12 08:03:59;;;;;;;0.73;0.65;;;;;;;23.44;98.52;102475.47;10445199;28;20045;-79
2022/07/12 08:09:01;;;;;;;0.77;0.40;;;;;;;23.62;100.00;102485.03;10444260;28;20138;-79
2022/07/12 08:14:13;;;;;;;0.20;0.20;;;;;;;24.67;98.56;102470.44;10449649;28;20152;-79
2022/07/12 08:19:14;;;;;;;0.40;0.40;;;;;;;23.86;93.69;102472.66;10445239;28;20037;-79
2022/07/12 08:24:16;;;;;;;0.55;0.43;;;;;;;24.01;92.25;102466.47;10447603;28;20514;-80
2022/07/12 08:29:18;;;;;;;0.32;0.20;;;;;;;25.05;89.02;102457.78;10445170;28;20510;-79
2022/07/12 08:34:20;;;;;;;0.38;0.30;;;;;;;25.17;83.31;102462.94;10445338;28;20048;-79
2022/07/12 08:39:21;;;;;;;0.43;0.30;;;;;;;25.42;86.19;102467.97;10458423;28;20106;-79
2022/07/12 08:44:23;;;;;;;0.57;0.45;;;;;;;25.33;85.63;102459.25;10458143;28;20048;-79
2022/07/12 08:49:25;;;;;;;1.20;0.22;;;;;;;25.42;87.20;102467.97;10437451;28;20059;-79
2022/07/12 08:54:38;;;;;;;0.13;0.10;;;;;;;25.35;84.97;102468.00;10458191;28;20061;-79
2022/07/12 08:59:47;;;;;;;0.35;0.30;;;;;;;24.95;81.02;102478.06;10455095;28;20050;-79
2022/07/12 09:05:05;;;;;;;0.10;0.10;;;;;;;25.11;82.19;102468.28;10459376;28;20479;-79
2022/07/12 09:10:09;;;;;;;0.10;0.10;;;;;;;25.38;83.33;102468.84;10440917;28;20098;-80
2022/07/12 09:15:17;;;;;;;0.30;0.28;;;;;;;25.00;82.33;102466.59;10458542;28;20099;-79
2022/07/12 09:20:18;;;;;;;0.20;0.20;;;;;;;24.78;82.37;102471.22;10450105;28;20050;-80
2022/07/12 09:25:20;;;;;;;0.00;0.00;;;;;;;24.48;84.47;102461.75;10458272;28;20068;-80
2022/07/12 09:30:24;;;;;;;0.08;0.08;;;;;;;24.84;75.67;102470.28;10457565;28;20128;-79
2022/07/12 09:40:47;;;;;;;0.10;0.10;;;;;;;25.16;78.93;102455.91;10457315;28;20412;-80
2022/07/12 09:45:49;;;;;;;0.43;0.20;;;;;;;25.74;83.73;102442.94;10453532;28;20055;-79
2022/07/12 09:50:51;;;;;;;0.50;0.40;;;;;;;26.64;78.52;102442.47;10446330;28;20056;-80
2022/07/12 09:55:54;;;;;;;0.30;0.30;;;;;;;24.89;76.96;102451.78;10438769;28;20107;-80
2022/07/12 10:01:02;;;;;;;0.20;0.17;;;;;;;25.57;77.16;102441.41;10455663;28;20037;-80
2022/07/12 10:06:04;;;;;;;0.10;0.10;;;;;;;25.84;70.31;102438.41;10455221;28;20052;-80
2022/07/12 10:11:07;;;;;;;0.30;0.30;;;;;;;26.57;73.36;102436.41;10469206;28;20049;-79
2022/07/12 10:16:11;;;;;;;0.35;0.30;;;;;;;26.06;71.43;102444.25;10451970;28;20099;-79
2022/07/12 10:21:21;;;;;;;0.10;0.10;;;;;;;25.96;73.04;102443.50;10455222;28;20056;-80
2022/07/12 10:26:25;;;;;;;2.03;0.80;;;;;;;26.47;75.58;102440.13;10454406;28;20057;-80
2022/07/12 10:31:35;;;;;;;0.20;0.20;;;;;;;26.36;71.12;102442.06;10454155;28;20415;-79
2022/07/12 10:36:55;;;;;;;0.50;0.40;;;;;;;26.70;74.47;102436.19;10454830;28;20064;-80
2022/07/12 10:42:17;;;;;;;0.77;0.52;;;;;;;26.76;68.96;102431.72;10438257;28;20045;-80
2022/07/12 10:47:24;;;;;;;0.10;0.10;;;;;;;26.70;66.79;102428.25;10446450;28;20044;-80
2022/07/12 10:52:26;;;;;;;0.25;0.10;;;;;;;26.29;70.62;102420.13;10460020;28;20049;-80
2022/07/12 10:57:39;;;;;;;0.52;0.52;;;;;;;27.19;68.78;102400.94;10441045;28;20504;-80
2022/07/12 11:02:42;;;;;;;0.10;0.10;;;;;;;27.43;71.35;102401.34;10439123;28;20041;-81
2022/07/12 11:07:44;;;;;;;0.65;0.40;;;;;;;27.36;66.44;102399.72;10428908;28;20056;-80
2022/07/12 11:12:47;;;;;;;0.08;0.08;;;;;;;27.00;66.25;102404.81;10434700;28;20136;-80
2022/07/12 11:17:48;;;;;;;0.30;0.30;;;;;;;27.30;66.55;102406.00;10456776;28;20041;-80
2022/07/12 11:22:53;;;;;;;0.10;0.10;;;;;;;27.86;64.33;102397.75;10447427;28;20055;-79
2022/07/12 11:27:54;;;;;;;0.00;0.00;;;;;;;28.18;64.37;102401.41;10450343;28;20086;-79
2022/07/12 11:32:57;;;;;;;0.20;0.13;;;;;;;27.49;62.81;102411.81;10434110;28;20060;-80
2022/07/12 11:37:59;;;;;;;0.30;0.20;;;;;;;27.13;61.52;102416.94;10450838;28;20041;-79
2022/07/12 11:43:04;;;;;;;0.38;0.20;;;;;;;27.90;64.78;102416.19;10436292;28;20045;-80
2022/07/12 11:48:06;;;;;;;0.10;0.10;;;;;;;28.04;60.93;102416.72;10447091;28;20045;-79
2022/07/12 11:53:18;;;;;;;0.40;0.22;;;;;;;27.57;56.46;102414.28;10439619;28;20045;-80
2022/07/12 11:58:20;;;;;;;0.00;0.00;;;;;;;27.64;53.44;102412.38;10450819;28;20497;-79
2022/07/12 12:03:22;;;;;;;0.00;0.00;;;;;;;28.73;59.09;102403.59;10446576;28;20052;-80
2022/07/12 12:08:25;;;;;;;0.15;0.10;;;;;;;27.13;58.25;102408.09;10447166;28;20045;-79
2022/07/12 12:13:29;;;;;;;0.13;0.13;;;;;;;28.23;60.06;102406.59;10436685;28;20037;-79
2022/07/12 12:18:35;;;;;;;0.05;0.05;;;;;;;27.94;55.16;102396.69;10449083;28;20044;-79
2022/07/12 12:23:39;;;;;;;0.10;0.10;;;;;;;27.24;56.30;102391.13;10435743;28;20044;-79
2022/07/12 12:28:49;;;;;;;0.13;0.10;;;;;;;26.37;59.41;102388.31;10448260;28;20048;-79
2022/07/12 12:33:52;;;;;;;0.15;0.10;;;;;;;28.07;50.14;102384.91;10455404;28;20044;-79
2022/07/12 12:38:56;;;;;;;0.10;0.10;;;;;;;27.84;54.14;102378.38;10450763;28;20123;-79
2022/07/12 12:44:04;;;;;;;0.00;0.00;;;;;;;27.81;50.33;102381.06;10450996;28;20106;-79
2022/07/12 12:49:06;;;;;;;0.13;0.07;;;;;;;28.04;57.59;102374.34;10448378;28;20129;-80
2022/07/12 12:54:08;;;;;;;0.00;0.00;;;;;;;28.55;56.15;102374.91;10447797;28;20067;-79
2022/07/12 12:59:10;;;;;;;0.80;0.65;;;;;;;27.51;50.84;102367.66;10465766;28;20500;-79
2022/07/12 13:04:11;;;;;;;0.10;0.05;;;;;;;28.27;52.23;102359.69;10448638;28;20057;-79
2022/07/12 13:09:13;;;;;;;0.28;0.20;;;;;;;28.40;51.68;102362.91;10449432;28;20045;-79
2022/07/12 13:14:15;;;;;;;0.10;0.03;;;;;;;26.88;50.92;102367.16;10450464;28;20408;-79
2022/07/12 13:19:17;;;;;;;0.00;0.00;;;;;;;27.90;55.20;102363.22;10465642;28;20068;-79
2022/07/12 13:24:19;;;;;;;0.10;0.10;;;;;;;27.00;56.03;102366.03;10453384;28;20053;-79
2022/07/12 13:29:20;;;;;;;0.70;0.28;;;;;;;26.92;57.78;102360.03;10452646;28;20052;-79
2022/07/12 13:34:22;;;;;;;0.10;0.10;;;;;;;27.60;57.99;102357.75;10454353;28;20527;-79
2022/07/12 13:44:44;;;;;;;0.03;0.03;;;;;;;27.54;55.98;102351.69;10457827;28;20052;-80
2022/07/12 13:49:45;;;;;;;0.00;0.00;;;;;;;28.46;52.29;102353.03;10485821;28;20029;-79
2022/07/12 13:54:47;;;;;;;0.10;0.10;;;;;;;28.26;53.83;102358.84;10481465;28;20052;-80
2022/07/12 13:59:50;;;;;;;0.00;0.00;;;;;;;28.46;56.13;102349.47;10464159;28;20098;-79
2022/07/12 14:04:52;;;;;;;0.20;0.10;;;;;;;28.50;53.11;102349.34;10460003;28;20048;-79
2022/07/12 14:09:54;;;;;;;0.63;0.15;;;;;;;28.64;58.53;102338.38;10460263;28;20056;-79
2022/07/12 14:20:14;;;;;;;0.10;0.10;;;;;;;28.63;52.38;102334.00;10460568;28;20126;-80
2022/07/12 14:25:16;;;;;;;0.17;0.17;;;;;;;28.91;52.92;102327.06;10476114;28;20052;-79
2022/07/12 14:30:18;;;;;;;0.00;0.00;;;;;;;28.84;47.79;102329.03;10459354;28;20056;-80
2022/07/12 14:35:19;;;;;;;0.00;0.00;;;;;;;28.90;54.03;102325.34;10460251;28;20095;-79
2022/07/12 14:40:21;;;;;;;0.10;0.10;;;;;;;28.45;50.84;102326.53;10459549;28;20056;-79
2022/07/12 14:45:24;;;;;;;0.00;0.00;;;;;;;27.93;52.84;102321.66;10458586;28;20083;-80
2022/07/12 14:50:25;;;;;;;0.20;0.10;;;;;;;28.13;52.29;102317.66;10451314;28;20050;-80
2022/07/12 14:55:27;;;;;;;0.55;0.28;;;;;;;28.24;53.29;102320.03;10451883;28;20400;-79
2022/07/12 15:00:28;;;;;;;0.00;0.00;;;;;;;28.14;52.01;102314.13;10459226;28;20049;-80
2022/07/12 15:05:30;;;;;;;0.15;0.10;;;;;;;27.71;51.50;102300.13;10457656;28;20045;-79
2022/07/12 15:10:32;;;;;;;0.22;0.15;;;;;;;27.50;54.34;102296.22;10458716;28;20041;-79
2022/07/12 15:15:35;;;;;;;0.00;0.00;;;;;;;28.24;55.57;102298.84;10462853;28;20044;-77
2022/07/12 15:20:36;;;;;;;0.20;0.20;;;;;;;28.24;59.01;102302.34;10464074;28;20488;-79
2022/07/12 15:25:38;;;;;;;0.20;0.10;;;;;;;28.52;56.81;102290.13;10446991;28;20079;-79
2022/07/12 15:30:42;;;;;;;0.10;0.10;;;;;;;27.44;50.09;102293.72;10453034;28;20041;-79
2022/07/12 15:35:43;;;;;;;0.13;0.10;;;;;;;28.21;52.36;102288.31;10455691;28;20047;-78
2022/07/12 15:40:45;;;;;;;0.38;0.20;;;;;;;28.01;50.46;102277.28;10455714;28;20045;-79
2022/07/12 15:45:47;;;;;;;0.00;0.00;;;;;;;27.81;52.74;102280.44;10454353;28;20056;-79
2022/07/12 15:50:48;;;;;;;0.00;0.00;;;;;;;27.99;56.89;102257.06;10471166;28;20132;-79
2022/07/12 15:56:01;;;;;;;0.00;0.00;;;;;;;27.60;47.36;102252.75;10454109;28;20049;-78
2022/07/12 16:01:04;;;;;;;0.55;0.20;;;;;;;28.00;58.59;102254.38;10455223;28;20065;-78
2022/07/12 16:06:07;;;;;;;0.40;0.25;;;;;;;28.12;57.36;102253.19;10453708;28;20063;-78
2022/07/12 16:11:14;;;;;;;0.00;0.00;;;;;;;27.99;62.14;102246.47;10439111;28;20052;-78
2022/07/12 16:16:16;;;;;;;0.17;0.13;;;;;;;27.94;59.06;102245.72;10449161;28;20057;-78
2022/07/12 16:35:55;;;;;;;0.00;0.00;;;;;;;27.77;61.55;102230.28;10484942;28;20459;-78
2022/07/12 16:40:56;;;;;;;0.00;0.00;;;;;;;27.47;58.68;102236.28;10482940;28;20103;-78
2022/07/12 16:45:58;;;;;;;0.10;0.10;;;;;;;27.35;60.13;102239.19;10474069;28;20056;-78
2022/07/12 16:56:28;;;;;;;0.00;0.00;;;;;;;27.52;61.32;102233.53;10429237;28;20049;-78
2022/07/12 17:01:30;;;;;;;0.28;0.28;;;;;;;27.65;61.29;102240.25;10439368;28;20041;-78
2022/07/12 17:06:33;;;;;;;0.10;0.10;;;;;;;27.60;61.88;102238.63;10442205;28;20056;-78
2022/07/12 17:11:35;;;;;;;0.00;0.00;;;;;;;27.48;61.19;102238.03;10424632;28;20128;-78
2022/07/12 17:16:38;;;;;;;0.00;0.00;;;;;;;27.44;64.82;102233.69;10442907;28;20049;-78
2022/07/12 17:21:40;;;;;;;0.00;0.00;;;;;;;27.36;65.46;102238.31;10441204;28;20046;-78
2022/07/12 17:26:42;;;;;;;0.00;0.00;;;;;;;27.06;63.77;102232.81;10441198;28;20057;-79
2022/07/12 17:31:43;;;;;;;0.20;0.10;;;;;;;27.18;63.76;102232.53;10440249;28;20128;-79
2022/07/12 17:36:46;;;;;;;0.20;0.03;;;;;;;26.94;63.95;102238.34;10442993;28;20053;-79
2022/07/12 17:41:55;;;;;;;0.00;0.00;;;;;;;26.82;63.17;102237.72;10431277;28;20034;-79
2022/07/12 17:46:56;;;;;;;0.00;0.00;;;;;;;26.56;66.23;102236.44;10401652;28;20401;-78
2022/07/12 17:51:58;;;;;;;0.13;0.13;;;;;;;26.41;67.99;102242.03;10389565;28;20084;-78
2022/07/12 17:56:59;;;;;;;1.08;0.10;;;;;;;26.36;64.67;102241.28;10404782;28;20049;-78
2022/07/12 18:02:01;;;;;;;0.20;0.10;;;;;;;26.37;64.76;102243.00;10411926;28;20048;-78
2022/07/12 18:07:03;;;;;;;0.10;0.10;;;;;;;26.27;65.38;102232.63;10407761;28;20046;-78
2022/07/12 18:22:46;;;;;;;0.05;0.05;;;;;;;25.84;74.56;102228.09;10437832;28;20056;-78
2022/07/12 18:27:47;;;;;;;0.00;0.00;;;;;;;25.76;68.36;102235.25;10397127;28;20124;-78
2022/07/12 18:32:50;;;;;;;0.25;0.17;;;;;;;25.66;70.13;102231.91;10393797;28;20099;-78
2022/07/12 18:37:52;;;;;;;0.00;0.00;;;;;;;25.56;76.22;102228.56;10426189;28;20144;-78
2022/07/12 18:42:55;;;;;;;1.00;0.38;;;;;;;25.16;77.56;102226.47;10406943;28;20451;-78
2022/07/12 18:47:57;;;;;;;0.00;0.00;;;;;;;25.35;83.45;102216.53;10407812;28;20065;-78
2022/07/12 18:52:59;;;;;;;0.10;0.10;;;;;;;24.63;79.42;102215.75;10409914;28;20033;-78
2022/07/12 18:58:01;;;;;;;0.10;0.10;;;;;;;24.79;87.71;102208.53;10407683;28;20099;-78
2022/07/12 19:03:03;;;;;;;0.20;0.20;;;;;;;24.75;85.36;102212.13;10401250;28;20440;-78
2022/07/12 19:08:05;;;;;;;1.17;0.38;;;;;;;24.69;88.75;102207.78;10397526;28;20485;-78
2022/07/12 19:13:07;;;;;;;0.03;0.00;;;;;;;24.55;87.45;102210.53;10405778;28;20443;-78
2022/07/12 19:18:09;;;;;;;0.10;0.10;;;;;;;24.27;82.84;102216.13;10405463;28;20420;-78
2022/07/12 19:23:11;;;;;;;0.45;0.10;;;;;;;24.31;97.29;102217.81;10409203;28;20125;-77
2022/07/12 19:28:12;;;;;;;0.00;0.00;;;;;;;24.08;95.60;102224.22;10408593;28;20053;-78
2022/07/12 19:33:14;;;;;;;0.28;0.20;;;;;;;23.94;94.22;102215.56;10402415;28;20033;-77
2022/07/12 19:38:17;;;;;;;0.22;0.20;;;;;;;23.54;88.97;102214.13;10384778;28;20049;-78
2022/07/12 19:43:19;;;;;;;0.63;0.20;;;;;;;23.31;87.84;102216.06;10395966;28;20129;-78
2022/07/12 19:48:23;;;;;;;0.20;0.10;;;;;;;23.30;91.07;102220.44;10390131;28;20060;-78
2022/07/12 19:53:25;;;;;;;0.10;0.10;;;;;;;23.28;100.00;102230.06;10386865;28;20124;-77
2022/07/12 19:58:26;;;;;;;0.05;0.05;;;;;;;23.12;100.00;102227.50;10407564;28;20404;-77
2022/07/12 20:03:28;;;;;;;0.25;0.20;;;;;;;22.45;100.00;102208.53;10423666;28;20442;-78
2022/07/12 20:08:30;;;;;;;0.30;0.25;;;;;;;22.88;92.59;102206.63;10432377;28;20053;-78
2022/07/12 20:13:31;;;;;;;0.00;0.00;;;;;;;22.68;100.00;102220.69;10421954;28;20607;-78
2022/07/12 20:18:33;;;;;;;0.00;0.00;;;;;;;22.54;99.30;102218.16;10420288;28;20061;-78
2022/07/12 20:23:36;;;;;;;0.38;0.20;;;;;;;22.39;100.00;102203.28;10406298;28;20060;-78
2022/07/12 20:28:38;;;;;;;0.45;0.25;;;;;;;22.67;99.97;102203.22;10391749;28;20049;-78
2022/07/12 20:39:00;;;;;;;0.10;0.10;;;;;;;22.54;100.00;102202.38;10406534;28;20056;-79
2022/07/12 20:44:02;;;;;;;2.28;0.30;;;;;;;22.50;100.00;102200.63;10414717;28;20103;-78
2022/07/12 20:49:03;;;;;;;0.43;0.32;;;;;;;22.50;100.00;102196.28;10402143;28;20045;-78
2022/07/12 20:54:05;;;;;;;0.00;0.00;;;;;;;22.42;100.00;102194.53;10402949;28;20038;-78
2022/07/12 20:59:13;;;;;;;0.10;0.10;;;;;;;22.39;100.00;102191.94;10406309;28;20065;-78
2022/07/12 21:04:17;;;;;;;0.03;0.03;;;;;;;22.16;100.00;102201.56;10407394;28;20489;-78
2022/07/12 21:09:19;;;;;;;0.10;0.10;;;;;;;22.12;100.00;102202.47;10406032;28;20092;-78
2022/07/12 21:14:22;;;;;;;0.10;0.10;;;;;;;22.16;100.00;102201.56;10406851;28;20049;-79
2022/07/12 21:19:25;;;;;;;0.13;0.10;;;;;;;21.95;100.00;102207.72;10410392;28;20048;-78
2022/07/12 21:24:26;;;;;;;0.10;0.10;;;;;;;21.82;100.00;102206.88;10412668;28;20441;-78
2022/07/12 21:29:28;;;;;;;0.20;0.15;;;;;;;21.92;100.00;102206.88;10410185;28;20060;-78
2022/07/12 21:34:30;;;;;;;0.05;0.05;;;;;;;21.81;100.00;102212.13;10411320;28;20030;-78
2022/07/12 21:39:32;;;;;;;0.10;0.10;;;;;;;21.83;100.00;102208.63;10413032;28;20056;-78
2022/07/12 21:44:34;;;;;;;0.68;0.65;;;;;;;21.74;100.00;102213.84;10415350;28;20037;-79
2022/07/12 21:49:36;;;;;;;0.47;0.47;;;;;;;21.71;100.00;102208.59;10414925;28;20049;-78
2022/07/12 21:54:38;;;;;;;0.75;0.30;;;;;;;21.66;100.00;102210.34;10416379;28;20432;-78
2022/07/12 21:59:39;;;;;;;0.25;0.25;;;;;;;21.53;100.00;102210.31;10411708;28;20385;-78
2022/07/12 22:04:41;;;;;;;0.32;0.22;;;;;;;21.40;100.00;102204.19;10413035;28;20053;-78
2022/07/12 22:09:43;;;;;;;0.20;0.20;;;;;;;21.46;100.00;102211.19;10413359;28;20049;-79
2022/07/12 22:14:45;;;;;;;0.25;0.25;;;;;;;21.35;100.00;102205.03;10414514;28;20060;-78
2022/07/12 22:19:46;;;;;;;0.77;0.20;;;;;;;21.07;100.00;102197.13;10411591;28;20052;-78
2022/07/12 22:24:48;;;;;;;0.30;0.30;;;;;;;20.96;100.00;102177.91;10409234;28;20037;-78
2022/07/12 22:29:50;;;;;;;0.90;0.80;;;;;;;20.89;100.00;102107.13;10412803;28;20097;-78
2022/07/12 22:34:51;;;;;;;0.43;0.40;;;;;;;21.27;100.00;102130.75;10418966;28;20037;-78
2022/07/12 22:39:53;;;;;;;0.65;0.50;;;;;;;21.18;100.00;102140.38;10412775;28;20049;-78
2022/07/12 22:44:55;;;;;;;0.10;0.10;;;;;;;21.14;100.00;102154.34;10417726;28;20103;-77
2022/07/12 22:49:56;;;;;;;0.20;0.10;;;;;;;21.09;100.00;102156.09;10412834;28;20041;-77
2022/07/12 22:54:58;;;;;;;0.52;0.30;;;;;;;20.97;100.00;102169.13;10413320;28;20088;-80
2022/07/12 23:00:00;;;;;;;0.55;0.13;;;;;;;20.96;100.00;102170.91;10412953;28;20046;-80
2022/07/12 23:05:01;;;;;;;0.10;0.10;;;;;;;20.86;100.00;102154.28;10411746;28;20493;-79
2022/07/12 23:10:04;;;;;;;0.40;0.40;;;;;;;20.99;100.00;102154.31;10412305;28;20134;-79
2022/07/12 23:15:06;;;;;;;1.25;0.77;;;;;;;20.96;100.00;102162.19;10416837;28;20393;-76
2022/07/12 23:20:09;;;;;;;0.20;0.20;;;;;;;21.03;100.00;102145.59;10417749;28;20056;-77
2022/07/12 23:25:11;;;;;;;0.20;0.20;;;;;;;20.95;100.00;102148.19;10417614;28;20117;-76
2022/07/12 23:30:13;;;;;;;1.88;0.82;;;;;;;20.63;100.00;102133.22;10416271;28;20045;-76
2022/07/12 23:35:15;;;;;;;1.13;0.75;;;;;;;20.57;100.00;102131.47;10415991;28;20377;-76
2022/07/12 23:40:16;;;;;;;0.77;0.50;;;;;;;20.52;100.00;102116.59;10415856;28;20056;-76
2022/07/12 23:45:18;;;;;;;1.52;0.80;;;;;;;21.03;100.00;102119.41;10415268;28;20045;-76
2022/07/12 23:50:20;;;;;;;0.20;0.20;;;;;;;21.20;100.00;102125.53;10416634;28;20041;-76
2022/07/12 23:55:22;;;;;;;0.32;0.28;;;;;;;20.79;100.00;102160.38;10398881;28;20052;-76
